Time;durP1;ratioP1;P1;durP2;ratioP2;P2;SDS_P1;SDS_P2;PMS_P1;PMS_P2;Temp;Humidity;BMP_temperature;BMP_pressure;BME280_temperature;BME280_humidity;BME280_pressure;Samples;Min_cycle;Max_cycle;Signal;HPM_P1;HPM_P2
2021/03/22 00:00:53;;;;;;;24.70;5.93;;;;;;;6.03;60.43;101860.69;6197734;28;20233;-55
2021/03/22 00:04:13;;;;;;;19.70;7.10;;;;;;;6.15;59.93;101861.03;6201672;28;20241;-54
2021/03/22 00:07:33;;;;;;;14.57;5.53;;;;;;;5.98;60.92;101860.59;6204049;28;20315;-55
2021/03/22 00:10:54;;;;;;;20.73;6.63;;;;;;;5.95;61.07;101865.66;6201618;28;20362;-55
2021/03/22 00:14:15;;;;;;;18.70;5.53;;;;;;;6.04;60.62;101860.75;6204006;28;20224;-55
2021/03/22 00:17:36;;;;;;;19.57;5.27;;;;;;;5.85;60.99;101858.47;6202719;28;20222;-55
2021/03/22 00:20:56;;;;;;;16.00;5.73;;;;;;;5.91;61.12;101868.97;6200841;28;20252;-56
2021/03/22 00:24:17;;;;;;;29.00;6.93;;;;;;;5.90;61.36;101868.09;6199983;28;20265;-56
2021/03/22 00:27:38;;;;;;;35.93;10.13;;;;;;;6.00;60.81;101866.66;6201133;28;20225;-51
2021/03/22 00:30:59;;;;;;;28.33;7.43;;;;;;;5.68;62.03;101874.41;6209019;28;20232;-57
2021/03/22 00:34:19;;;;;;;19.00;5.90;;;;;;;5.67;62.04;101869.19;6205461;28;20233;-51
2021/03/22 00:37:39;;;;;;;22.87;7.63;;;;;;;5.93;61.17;101869.88;6212368;28;20225;-54
2021/03/22 00:41:00;;;;;;;23.37;6.30;;;;;;;5.87;61.40;101867.13;6211170;28;20225;-55
2021/03/22 00:44:21;;;;;;;19.23;5.27;;;;;;;5.69;62.06;101863.22;6203390;28;20237;-56
2021/03/22 00:47:42;;;;;;;24.77;6.30;;;;;;;5.81;61.32;101870.44;6212627;28;20225;-53
2021/03/22 00:51:04;;;;;;;23.77;6.47;;;;;;;5.91;61.47;101867.28;6203261;28;20248;-53
2021/03/22 00:54:25;;;;;;;16.17;5.20;;;;;;;5.87;61.36;101869.72;6204975;28;20325;-53
2021/03/22 00:57:45;;;;;;;18.30;7.00;;;;;;;5.91;60.91;101864.69;6207936;28;20237;-52
2021/03/22 01:01:06;;;;;;;19.20;6.13;;;;;;;5.73;61.39;101857.28;6211907;28;20731;-54
2021/03/22 01:04:27;;;;;;;13.10;5.20;;;;;;;5.77;61.55;101858.25;6212665;28;20319;-54
2021/03/22 01:07:48;;;;;;;19.93;6.63;;;;;;;5.82;61.53;101861.00;6203862;28;20270;-57
2021/03/22 01:11:12;;;;;;;22.60;5.97;;;;;;;5.85;61.13;101859.34;6206057;28;20233;-55
2021/03/22 01:14:32;;;;;;;23.50;5.67;;;;;;;5.90;61.00;101872.41;6205302;28;20499;-51
2021/03/22 01:17:53;;;;;;;18.37;5.80;;;;;;;5.73;61.51;101870.22;6212491;28;20237;-55
2021/03/22 01:21:20;;;;;;;18.53;5.20;;;;;;;5.83;61.04;101862.72;6207354;28;20777;-56
2021/03/22 01:24:40;;;;;;;15.43;5.30;;;;;;;5.49;62.83;101869.56;6198267;28;20242;-55
2021/03/22 01:28:01;;;;;;;18.07;6.47;;;;;;;5.33;63.37;101860.47;6195488;28;20521;-56
2021/03/22 01:31:21;;;;;;;17.47;6.40;;;;;;;5.55;62.28;101858.53;6204121;28;20457;-52
2021/03/22 01:34:42;;;;;;;15.00;5.73;;;;;;;5.44;62.64;101856.47;6203312;28;20242;-56
2021/03/22 01:38:04;;;;;;;19.93;5.93;;;;;;;5.62;62.23;101848.41;6205725;28;20225;-56
2021/03/22 01:41:50;;;;;;;19.37;5.90;;;;;;;5.58;62.49;101843.94;6201945;28;20604;-55
2021/03/22 01:45:11;;;;;;;20.57;6.43;;;;;;;5.53;62.68;101858.47;6196545;28;20233;-54
2021/03/22 01:48:32;;;;;;;21.70;5.03;;;;;;;5.44;62.39;101853.03;6189809;28;20232;-56
2021/03/22 01:51:53;;;;;;;20.00;5.03;;;;;;;5.50;62.60;101858.38;6208873;28;20244;-54
2021/03/22 01:55:16;;;;;;;16.67;6.40;;;;;;;5.56;62.61;101861.13;6198984;28;20234;-53
2021/03/22 01:58:37;;;;;;;21.50;6.73;;;;;;;5.44;62.93;101861.66;6203159;28;20227;-54
2021/03/22 02:02:01;;;;;;;18.57;4.67;;;;;;;5.33;63.11;101863.94;6202539;28;20237;-56
2021/03/22 02:05:24;;;;;;;21.67;5.40;;;;;;;5.32;63.11;101869.94;6211236;28;20308;-56
2021/03/22 02:08:47;;;;;;;21.10;6.90;;;;;;;5.16;63.97;101865.16;6204043;28;20222;-57
2021/03/22 02:12:16;;;;;;;25.10;6.73;;;;;;;5.45;63.41;101870.31;6198419;28;20237;-56
2021/03/22 02:15:39;;;;;;;22.00;7.00;;;;;;;5.46;62.59;101869.44;6201397;28;20351;-56
2021/03/22 02:19:13;;;;;;;20.93;5.67;;;;;;;5.50;63.19;101871.28;6197137;28;20241;-55
2021/03/22 02:23:23;;;;;;;16.73;5.03;;;;;;;5.47;63.09;101866.06;6203344;28;20639;-53
2021/03/22 02:27:33;;;;;;;27.73;7.13;;;;;;;5.59;62.72;101873.28;6139661;28;20231;-54
2021/03/22 02:31:42;;;;;;;15.47;5.33;;;;;;;5.51;63.33;101873.06;6196243;28;20599;-53
2021/03/22 02:35:09;;;;;;;21.93;6.70;;;;;;;5.51;63.32;101865.31;6127265;28;20513;-56
2021/03/22 02:38:34;;;;;;;17.37;5.60;;;;;;;5.44;63.68;101868.53;6150622;28;20229;-54
2021/03/22 02:41:58;;;;;;;17.47;5.90;;;;;;;5.45;64.07;101870.31;6208584;28;20229;-56
2021/03/22 02:45:24;;;;;;;18.90;4.90;;;;;;;5.49;63.66;101867.84;6196708;28;20249;-54
2021/03/22 02:48:45;;;;;;;21.83;7.23;;;;;;;5.50;63.99;101866.13;6205018;28;20238;-55
2021/03/22 02:52:13;;;;;;;28.87;6.93;;;;;;;5.43;63.85;101864.19;6199217;28;20599;-55
2021/03/22 02:55:40;;;;;;;20.50;6.23;;;;;;;5.59;63.64;101866.38;6201290;28;20236;-52
2021/03/22 02:59:09;;;;;;;24.53;6.23;;;;;;;5.44;64.08;101873.69;6196881;28;20498;-54
2021/03/22 03:02:34;;;;;;;25.93;7.13;;;;;;;5.53;63.79;101866.22;6204440;28;20431;-55
2021/03/22 03:05:55;;;;;;;29.47;8.17;;;;;;;5.20;65.21;101872.16;6202571;28;20229;-52
2021/03/22 03:09:18;;;;;;;18.03;5.77;;;;;;;5.29;65.22;101882.78;6200497;28;20234;-56
2021/03/22 03:12:38;;;;;;;21.87;5.50;;;;;;;5.28;65.29;101878.41;6204106;28;20252;-56
2021/03/22 03:15:59;;;;;;;20.60;5.67;;;;;;;5.51;64.25;101886.84;6201259;28;20253;-53
2021/03/22 03:19:19;;;;;;;23.27;5.47;;;;;;;5.28;65.60;101887.88;6202618;28;20423;-54
2021/03/22 03:22:40;;;;;;;21.77;7.13;;;;;;;5.15;65.57;101889.22;6195710;28;20587;-57
2021/03/22 03:26:02;;;;;;;16.50;6.43;;;;;;;5.26;65.23;101882.66;6204676;28;20225;-57
2021/03/22 03:29:22;;;;;;;24.23;7.63;;;;;;;5.15;66.14;101894.38;6205009;28;20233;-51
2021/03/22 03:32:43;;;;;;;19.83;4.87;;;;;;;5.08;65.97;101892.47;6208645;28;20257;-56
2021/03/22 03:36:04;;;;;;;23.17;7.07;;;;;;;5.03;66.72;101894.88;6205759;28;20225;-56
2021/03/22 03:39:24;;;;;;;26.67;6.70;;;;;;;5.12;66.51;101894.31;6198534;28;20225;-56
2021/03/22 03:42:46;;;;;;;25.57;7.23;;;;;;;5.06;66.61;101899.25;6205214;28;20252;-55
2021/03/22 03:46:06;;;;;;;27.30;6.03;;;;;;;4.89;67.20;101902.19;6204898;28;20232;-57
2021/03/22 03:49:27;;;;;;;22.30;8.03;;;;;;;4.91;66.67;101902.25;6197170;28;20289;-55
2021/03/22 03:52:47;;;;;;;21.10;6.53;;;;;;;5.08;66.47;101907.94;6200141;28;20583;-55
2021/03/22 03:56:08;;;;;;;24.73;11.07;;;;;;;5.12;67.09;101910.66;6206338;28;20241;-51
2021/03/22 03:59:29;;;;;;;20.47;8.43;;;;;;;5.19;66.54;101910.84;6198751;28;20237;-56
2021/03/22 04:02:50;;;;;;;25.73;8.73;;;;;;;5.04;67.29;101922.47;6201333;28;20241;-53
2021/03/22 04:06:14;;;;;;;26.00;8.23;;;;;;;5.28;65.90;101917.16;6197789;28;20221;-53
2021/03/22 04:09:34;;;;;;;22.73;7.37;;;;;;;5.18;66.05;101911.69;6203682;28;20515;-56
2021/03/22 04:12:55;;;;;;;26.83;7.20;;;;;;;5.16;66.82;101916.81;6200892;28;20228;-52
2021/03/22 04:16:16;;;;;;;24.93;6.20;;;;;;;4.99;67.09;101928.31;6205886;28;20233;-54
2021/03/22 04:19:36;;;;;;;20.10;6.10;;;;;;;4.86;67.93;101925.31;6206115;28;20268;-54
2021/03/22 04:22:57;;;;;;;15.80;5.83;;;;;;;4.95;67.88;101926.47;6209697;28;20541;-56
2021/03/22 04:26:18;;;;;;;22.07;7.30;;;;;;;5.15;67.29;101929.66;6198911;28;20237;-56
2021/03/22 04:29:38;;;;;;;24.10;8.10;;;;;;;4.87;68.23;101927.09;6199759;28;20229;-54
2021/03/22 04:33:00;;;;;;;19.37;5.50;;;;;;;5.09;67.06;101930.34;6203136;28;20233;-56
2021/03/22 04:36:22;;;;;;;22.20;7.10;;;;;;;4.91;67.98;101931.50;6205456;28;20244;-54
2021/03/22 04:39:43;;;;;;;23.93;7.27;;;;;;;5.01;68.30;101937.84;6201751;28;20257;-56
2021/03/22 04:43:04;;;;;;;21.53;6.43;;;;;;;5.21;67.97;101945.34;6207424;28;20330;-54
2021/03/22 04:46:24;;;;;;;17.93;6.63;;;;;;;5.26;67.30;101939.50;6209541;28;20229;-56
2021/03/22 04:49:45;;;;;;;21.13;6.23;;;;;;;4.92;69.11;101937.53;6210041;28;20221;-55
2021/03/22 04:53:06;;;;;;;15.70;5.33;;;;;;;4.87;68.90;101942.56;6191377;28;20343;-56
2021/03/22 04:56:26;;;;;;;21.33;6.30;;;;;;;5.05;68.73;101944.00;6200858;28;20596;-55
2021/03/22 04:59:47;;;;;;;24.50;7.37;;;;;;;5.15;68.05;101950.31;6205613;28;20610;-54
2021/03/22 05:03:09;;;;;;;18.43;6.17;;;;;;;5.24;67.90;101946.31;6197669;28;20237;-55
2021/03/22 05:06:30;;;;;;;24.70;8.67;;;;;;;5.05;68.68;101950.03;6209071;28;20225;-54
2021/03/22 05:09:51;;;;;;;20.70;7.70;;;;;;;5.19;68.35;101958.19;6202763;28;20534;-56
2021/03/22 05:13:12;;;;;;;25.57;6.23;;;;;;;5.26;68.51;101959.28;6204468;28;20222;-53
2021/03/22 05:16:33;;;;;;;22.27;6.93;;;;;;;5.18;68.66;101964.22;6202172;28;20315;-52
2021/03/22 05:19:53;;;;;;;16.33;7.07;;;;;;;5.47;67.84;101971.97;6201773;28;20234;-52
2021/03/22 05:23:18;;;;;;;31.17;9.43;;;;;;;5.42;67.31;101973.53;6205093;28;20624;-57
2021/03/22 05:26:38;;;;;;;26.27;9.13;;;;;;;5.44;68.00;101974.47;6207083;28;20233;-56
2021/03/22 05:29:58;;;;;;;20.97;7.43;;;;;;;5.44;67.30;101977.03;6205849;28;20257;-53
2021/03/22 05:33:21;;;;;;;32.43;8.83;;;;;;;5.58;66.61;101986.06;6209138;28;20241;-56
2021/03/22 05:36:41;;;;;;;19.80;7.57;;;;;;;5.47;67.31;101984.91;6209883;28;20318;-56
2021/03/22 05:40:04;;;;;;;22.87;9.40;;;;;;;5.46;67.09;101985.72;6207713;28;20236;-53
2021/03/22 05:43:52;;;;;;;21.17;7.83;;;;;;;5.37;67.05;101990.59;6207406;28;20229;-55
2021/03/22 05:47:22;;;;;;;39.03;10.93;;;;;;;5.60;66.72;101991.31;6204279;28;20511;-55
2021/03/22 05:50:57;;;;;;;17.97;6.90;;;;;;;5.71;66.54;101980.44;6204149;28;20224;-55
2021/03/22 05:54:41;;;;;;;14.73;7.40;;;;;;;5.39;67.15;101987.25;6202700;28;20607;-55
2021/03/22 05:58:34;;;;;;;16.20;6.83;;;;;;;5.52;66.40;101991.06;6198001;28;20237;-57
2021/03/22 06:02:00;;;;;;;13.53;6.77;;;;;;;5.70;65.60;101993.34;6207338;28;20229;-55
2021/03/22 06:05:33;;;;;;;19.27;7.13;;;;;;;5.89;65.25;101994.75;6209376;28;20264;-54
2021/03/22 06:08:58;;;;;;;24.53;10.07;;;;;;;5.81;65.61;101997.09;6212387;28;20257;-56
2021/03/22 06:12:39;;;;;;;14.27;6.33;;;;;;;5.50;66.88;102008.22;6202185;28;20662;-56
2021/03/22 06:16:04;;;;;;;20.93;7.33;;;;;;;5.42;66.56;102007.13;6211370;28;20622;-52
2021/03/22 06:19:25;;;;;;;11.80;6.50;;;;;;;5.37;66.38;102009.56;6211626;28;20233;-55
2021/03/22 06:22:45;;;;;;;19.20;7.53;;;;;;;5.44;66.25;102008.03;6205228;28;20568;-54
2021/03/22 06:26:27;;;;;;;23.30;8.30;;;;;;;5.76;65.37;102023.66;6208227;28;20240;-56
2021/03/22 06:29:54;;;;;;;21.60;7.23;;;;;;;5.70;65.73;102011.44;6204831;28;20312;-56
2021/03/22 06:33:26;;;;;;;18.40;7.73;;;;;;;5.99;64.40;102022.69;6207067;28;20605;-56
2021/03/22 06:36:47;;;;;;;21.20;8.00;;;;;;;5.67;64.84;102013.94;6207598;28;20229;-56
2021/03/22 06:40:11;;;;;;;19.63;7.70;;;;;;;6.04;66.40;102031.41;6203951;28;20546;-52
2021/03/22 06:43:32;;;;;;;13.10;6.90;;;;;;;6.39;64.73;102030.69;6205513;28;20260;-55
2021/03/22 06:46:59;;;;;;;23.07;6.83;;;;;;;6.69;63.57;102028.03;6199599;28;20225;-57
2021/03/22 06:50:29;;;;;;;14.93;7.20;;;;;;;6.17;63.94;102036.97;6197178;28;20241;-58
2021/03/22 06:53:51;;;;;;;17.80;7.37;;;;;;;6.14;63.72;102040.31;6198701;28;20524;-55
2021/03/22 06:57:13;;;;;;;19.37;8.97;;;;;;;6.11;64.02;102041.13;6198681;28;20233;-55
2021/03/22 07:00:36;;;;;;;16.73;7.17;;;;;;;6.27;63.57;102033.81;6198069;28;20221;-53
2021/03/22 07:04:16;;;;;;;18.00;7.53;;;;;;;5.82;64.67;102045.41;6202484;28;20269;-58
2021/03/22 07:07:52;;;;;;;18.23;7.17;;;;;;;5.99;63.34;102053.72;6207690;28;20229;-56
2021/03/22 07:11:15;;;;;;;13.07;7.17;;;;;;;6.00;64.18;102052.84;6169436;28;20229;-56
2021/03/22 07:14:35;;;;;;;18.27;8.30;;;;;;;6.39;62.90;102056.56;6207561;28;20682;-59
2021/03/22 07:18:11;;;;;;;15.33;7.67;;;;;;;6.63;62.37;102058.91;6205341;28;20244;-56
2021/03/22 07:21:34;;;;;;;21.07;8.20;;;;;;;6.60;61.85;102053.69;6199388;28;20238;-61
2021/03/22 07:25:01;;;;;;;19.30;6.07;;;;;;;6.58;61.95;102050.19;6207361;28;20285;-56
2021/03/22 07:28:31;;;;;;;15.07;7.10;;;;;;;6.76;61.58;102061.00;6207446;28;20234;-57
2021/03/22 07:32:02;;;;;;;14.87;6.23;;;;;;;7.09;60.57;102060.13;6205642;28;20240;-56
2021/03/22 07:35:49;;;;;;;15.53;5.80;;;;;;;6.79;60.66;102044.69;6204222;28;20221;-55
2021/03/22 07:39:24;;;;;;;13.27;6.00;;;;;;;6.67;60.56;102056.47;6195829;28;20621;-57
2021/03/22 07:43:08;;;;;;;21.17;8.13;;;;;;;6.53;61.11;102051.75;6197249;28;20539;-56
2021/03/22 07:46:51;;;;;;;14.57;6.20;;;;;;;6.84;59.69;102041.38;6191394;28;20578;-55
2021/03/22 07:50:20;;;;;;;7.07;4.60;;;;;;;7.33;57.99;102057.28;6197889;28;20319;-53
2021/03/22 07:53:46;;;;;;;9.57;5.63;;;;;;;7.14;58.34;102048.16;6200339;28;20257;-58
2021/03/22 07:57:18;;;;;;;12.37;4.90;;;;;;;7.23;58.13;102058.78;6173951;28;20261;-55
2021/03/22 08:00:52;;;;;;;15.13;6.10;;;;;;;7.19;58.14;102056.94;6205892;28;20709;-56
2021/03/22 08:04:40;;;;;;;19.97;6.20;;;;;;;7.90;56.88;102055.97;6202034;28;20236;-59
2021/03/22 08:08:06;;;;;;;17.03;7.40;;;;;;;7.79;57.15;102060.03;6199230;28;20232;-59
2021/03/22 08:11:36;;;;;;;13.43;6.67;;;;;;;7.77;57.49;102059.13;6205480;28;20234;-56
2021/03/22 08:15:02;;;;;;;16.53;5.77;;;;;;;7.29;58.36;102058.91;6196736;28;20220;-56
2021/03/22 08:18:33;;;;;;;10.57;6.40;;;;;;;7.19;58.26;102062.13;6207952;28;20673;-55
2021/03/22 08:21:59;;;;;;;13.83;7.27;;;;;;;7.71;57.01;102071.97;6201676;28;20233;-57
2021/03/22 08:25:37;;;;;;;14.07;5.70;;;;;;;8.01;55.68;102076.97;6199032;28;20230;-56
2021/03/22 08:29:07;;;;;;;10.07;6.20;;;;;;;8.40;54.45;102071.72;6200263;28;20316;-56
2021/03/22 08:32:41;;;;;;;16.07;7.10;;;;;;;8.28;55.02;102066.28;6206961;28;20226;-56
2021/03/22 08:36:16;;;;;;;14.23;7.60;;;;;;;7.94;56.07;102057.78;6200734;28;21516;-57
2021/03/22 08:39:41;;;;;;;10.90;5.17;;;;;;;8.26;54.93;102062.78;6207753;28;20225;-57
2021/03/22 08:43:05;;;;;;;12.23;6.50;;;;;;;9.31;52.33;102069.94;6206759;28;20233;-59
2021/03/22 08:46:32;;;;;;;14.37;5.70;;;;;;;8.85;52.84;102063.06;6201386;28;20225;-56
2021/03/22 08:49:56;;;;;;;10.23;6.07;;;;;;;8.75;53.91;102068.97;6207876;28;20240;-59
2021/03/22 08:53:20;;;;;;;9.17;5.13;;;;;;;8.74;54.98;102087.09;6203849;28;20610;-58
2021/03/22 08:56:53;;;;;;;12.77;5.00;;;;;;;9.51;55.03;102083.22;6207788;28;20526;-58
2021/03/22 09:00:28;;;;;;;10.47;4.10;;;;;;;9.75;54.93;102070.59;6203446;28;20549;-57
2021/03/22 09:03:51;;;;;;;15.10;5.47;;;;;;;9.94;51.04;102074.31;6209753;28;20241;-56
2021/03/22 09:07:26;;;;;;;17.07;5.93;;;;;;;9.75;50.64;102073.19;6205094;28;20237;-54
2021/03/22 09:10:49;;;;;;;9.03;5.13;;;;;;;10.02;50.34;102079.63;6211595;28;20229;-58
2021/03/22 09:14:28;;;;;;;13.87;6.33;;;;;;;9.72;50.08;102075.75;6205746;28;20674;-57
2021/03/22 09:18:21;;;;;;;12.97;4.73;;;;;;;10.15;49.60;102068.53;6214499;28;20253;-56
2021/03/22 09:21:43;;;;;;;11.90;5.87;;;;;;;9.02;51.80;102058.19;6214871;28;20225;-54
2021/03/22 09:25:04;;;;;;;12.30;5.20;;;;;;;9.02;51.70;102062.50;6206594;28;20332;-59
2021/03/22 09:28:44;;;;;;;14.87;4.97;;;;;;;9.11;51.68;102064.38;6204111;28;20630;-55
2021/03/22 09:32:42;;;;;;;10.70;4.57;;;;;;;9.96;50.71;102070.00;6205322;28;20233;-56
2021/03/22 09:36:08;;;;;;;11.90;5.07;;;;;;;10.42;49.38;102068.00;6206009;28;20447;-56
2021/03/22 09:39:49;;;;;;;13.67;5.37;;;;;;;10.76;48.65;102077.91;6194939;28;20230;-56
2021/03/22 09:43:15;;;;;;;13.60;5.63;;;;;;;10.21;48.93;102078.13;6207055;28;20252;-55
2021/03/22 09:46:39;;;;;;;11.57;5.40;;;;;;;10.63;48.84;102071.72;6205703;28;20242;-57
2021/03/22 09:50:24;;;;;;;6.30;3.93;;;;;;;10.53;48.59;102075.09;6205987;28;20599;-55
2021/03/22 09:53:51;;;;;;;14.43;4.77;;;;;;;10.86;48.22;102076.28;6199631;28;20226;-55
2021/03/22 09:57:42;;;;;;;7.60;3.77;;;;;;;11.33;47.27;102061.06;6210639;28;20241;-53
2021/03/22 10:01:06;;;;;;;9.20;4.97;;;;;;;11.38;45.58;102058.47;6209988;28;20233;-57
2021/03/22 10:04:32;;;;;;;10.37;5.50;;;;;;;11.77;46.58;102073.53;6201517;28;20237;-57
2021/03/22 10:08:03;;;;;;;8.20;4.50;;;;;;;12.55;43.47;102064.34;6205025;28;20621;-58
2021/03/22 10:11:27;;;;;;;7.03;4.50;;;;;;;12.86;42.55;102061.78;6201315;28;20618;-60
2021/03/22 10:15:00;;;;;;;11.13;6.20;;;;;;;12.60;44.08;102059.97;6203969;28;20229;-58
2021/03/22 10:18:29;;;;;;;7.70;5.13;;;;;;;12.54;42.54;102063.47;6210043;28;20241;-58
2021/03/22 10:21:52;;;;;;;7.63;4.37;;;;;;;10.80;46.02;102046.72;6211457;28;20244;-59
2021/03/22 10:25:18;;;;;;;7.73;4.60;;;;;;;11.85;45.86;102065.75;6208046;28;20264;-58
2021/03/22 10:28:40;;;;;;;12.47;6.60;;;;;;;12.70;43.70;102059.16;6215852;28;20248;-58
2021/03/22 10:32:07;;;;;;;7.60;4.40;;;;;;;13.94;41.55;102058.22;6209219;28;20301;-59
2021/03/22 10:35:39;;;;;;;8.47;5.23;;;;;;;14.95;39.19;102055.97;6208429;28;20550;-60
2021/03/22 10:39:00;;;;;;;9.40;3.93;;;;;;;15.54;37.94;102057.19;6207752;28;20230;-58
2021/03/22 10:42:36;;;;;;;7.40;3.97;;;;;;;16.04;36.32;102048.81;6207191;28;20225;-55
2021/03/22 10:45:59;;;;;;;8.37;3.73;;;;;;;15.99;35.25;102061.13;6209148;28;20244;-58
2021/03/22 10:49:23;;;;;;;5.13;3.33;;;;;;;14.72;33.86;102064.84;6209928;28;20229;-59
2021/03/22 10:52:44;;;;;;;11.10;4.13;;;;;;;20.97;26.50;102058.06;6211519;28;20507;-57
2021/03/22 10:56:19;;;;;;;7.17;4.07;;;;;;;25.21;21.35;102045.75;6200871;28;20623;-58
2021/03/22 10:59:44;;;;;;;6.78;3.33;;;;;;;26.47;18.72;102050.53;6213541;28;20233;-59
2021/03/22 11:03:05;;;;;;;6.18;3.58;;;;;;;24.48;20.22;102057.28;6207243;28;20253;-58
2021/03/22 11:06:31;;;;;;;4.95;2.40;;;;;;;26.24;17.51;102054.50;6203808;28;20253;-60
2021/03/22 11:09:54;;;;;;;5.05;2.72;;;;;;;27.33;16.42;102050.03;6211871;28;20248;-59
2021/03/22 11:13:22;;;;;;;4.45;2.20;;;;;;;29.18;14.68;102054.34;6201961;28;20859;-59
2021/03/22 11:16:44;;;;;;;8.27;3.13;;;;;;;21.66;21.12;102054.88;6210833;28;20618;-60
2021/03/22 11:20:06;;;;;;;10.20;3.28;;;;;;;18.89;26.44;102058.63;6197627;28;20511;-57
2021/03/22 11:23:41;;;;;;;5.32;3.42;;;;;;;22.20;22.69;102061.69;6211750;28;20324;-58
2021/03/22 11:27:04;;;;;;;5.85;3.40;;;;;;;27.08;17.99;102061.31;6210290;28;20221;-59
2021/03/22 11:30:34;;;;;;;7.93;3.65;;;;;;;25.47;18.61;102053.28;6206130;28;20234;-59
2021/03/22 11:34:04;;;;;;;6.10;3.70;;;;;;;25.86;17.38;102065.47;6200822;28;20315;-58
2021/03/22 11:37:28;;;;;;;7.90;3.35;;;;;;;25.79;18.36;102069.41;6200535;28;20248;-59
2021/03/22 11:40:49;;;;;;;3.08;2.63;;;;;;;23.67;20.65;102069.88;6202705;28;20620;-58
2021/03/22 11:44:23;;;;;;;5.68;3.53;;;;;;;19.85;25.46;102072.91;6204626;28;20588;-58
2021/03/22 11:47:45;;;;;;;3.78;2.67;;;;;;;23.72;20.56;102067.00;6204415;28;20232;-61
2021/03/22 11:51:08;;;;;;;4.65;3.10;;;;;;;28.90;16.17;102055.31;6209428;28;20229;-62
2021/03/22 11:54:31;;;;;;;4.78;3.00;;;;;;;26.44;17.89;102053.38;6185589;28;20214;-60
2021/03/22 11:57:52;;;;;;;4.97;3.38;;;;;;;27.66;16.15;102047.09;6198891;28;20232;-61
2021/03/22 12:01:14;;;;;;;7.50;3.45;;;;;;;19.56;25.84;102063.13;6213284;28;20242;-61
2021/03/22 12:04:35;;;;;;;6.30;3.47;;;;;;;20.36;25.47;102057.34;6197836;28;20242;-60
2021/03/22 12:07:56;;;;;;;6.05;3.65;;;;;;;24.52;19.30;102040.28;6202432;28;20277;-55
2021/03/22 12:11:18;;;;;;;6.55;3.05;;;;;;;22.79;21.49;102048.78;6191862;28;20593;-59
2021/03/22 12:14:39;;;;;;;5.90;2.83;;;;;;;25.52;18.66;102040.56;6191019;28;20232;-59
2021/03/22 12:18:05;;;;;;;6.80;3.65;;;;;;;19.53;25.81;102051.75;6204943;28;20240;-60
2021/03/22 12:21:25;;;;;;;5.28;2.55;;;;;;;22.32;22.74;102049.78;6204899;28;20217;-58
2021/03/22 12:24:47;;;;;;;4.38;2.72;;;;;;;22.22;22.57;102049.22;6200105;28;20240;-59
2021/03/22 12:28:07;;;;;;;6.68;3.20;;;;;;;17.48;30.01;102065.03;6182603;28;20274;-57
2021/03/22 12:31:30;;;;;;;5.43;3.17;;;;;;;20.75;25.44;102059.69;6203504;28;20232;-59
2021/03/22 12:34:51;;;;;;;4.88;3.70;;;;;;;19.80;26.69;102052.81;6202250;28;20241;-59
2021/03/22 12:38:11;;;;;;;3.55;2.70;;;;;;;19.00;28.17;102045.19;6209582;28;20586;-58
2021/03/22 12:41:34;;;;;;;5.70;3.10;;;;;;;19.17;28.11;102052.66;6214128;28;20232;-58
2021/03/22 12:44:55;;;;;;;5.75;3.53;;;;;;;17.61;30.55;102067.47;6210373;28;20244;-53
2021/03/22 12:48:16;;;;;;;4.15;3.45;;;;;;;16.18;33.05;102062.63;6201572;28;20572;-57
2021/03/22 12:51:36;;;;;;;6.00;3.20;;;;;;;13.97;37.60;102080.91;6211182;28;20272;-57
2021/03/22 12:54:57;;;;;;;6.23;3.10;;;;;;;15.71;35.44;102064.03;6205514;28;20252;-58
2021/03/22 12:58:20;;;;;;;5.40;3.40;;;;;;;17.29;31.83;102059.25;6200304;28;20260;-57
2021/03/22 13:01:40;;;;;;;3.30;3.00;;;;;;;17.43;31.08;102051.13;6211914;28;20233;-61
2021/03/22 13:05:01;;;;;;;7.03;2.70;;;;;;;16.04;35.07;102059.31;6207140;28;20237;-58
2021/03/22 13:08:22;;;;;;;3.73;2.90;;;;;;;15.46;37.37;102066.88;6209475;28;20233;-57
2021/03/22 13:11:43;;;;;;;5.30;2.80;;;;;;;14.70;37.61;102060.50;6206219;28;20619;-58
2021/03/22 13:15:08;;;;;;;5.27;2.93;;;;;;;15.62;35.42;102064.97;6204413;28;20226;-58
2021/03/22 13:18:31;;;;;;;4.73;3.33;;;;;;;15.63;34.73;102064.09;6199225;28;20241;-58
2021/03/22 13:21:51;;;;;;;5.67;3.70;;;;;;;14.79;37.29;102070.06;6206384;28;20241;-55
2021/03/22 13:25:13;;;;;;;5.00;3.67;;;;;;;13.26;40.49;102059.16;6210786;28;20221;-58
2021/03/22 13:28:38;;;;;;;5.20;3.00;;;;;;;13.71;40.06;102062.66;6203315;28;20262;-58
2021/03/22 13:31:59;;;;;;;7.10;3.43;;;;;;;14.21;39.72;102059.00;6207092;28;20242;-59
2021/03/22 13:35:23;;;;;;;3.50;2.13;;;;;;;14.65;38.57;102059.66;6200305;28;20241;-59
2021/03/22 13:38:43;;;;;;;9.27;2.77;;;;;;;15.54;36.64;102051.94;6199832;28;20237;-56
2021/03/22 13:42:05;;;;;;;5.33;2.53;;;;;;;16.27;35.10;102052.00;6207829;28;20317;-57
2021/03/22 13:45:28;;;;;;;4.27;3.23;;;;;;;14.33;38.90;102063.31;6208352;28;20229;-54
2021/03/22 13:48:50;;;;;;;5.73;2.43;;;;;;;13.01;41.40;102074.88;6201462;28;20244;-58
2021/03/22 13:52:15;;;;;;;4.73;2.90;;;;;;;15.82;35.91;102054.31;6205501;28;20241;-56
2021/03/22 13:55:36;;;;;;;4.67;2.40;;;;;;;15.80;35.42;102061.34;6207135;28;20233;-56
2021/03/22 13:58:56;;;;;;;3.73;2.63;;;;;;;13.37;40.94;102067.91;6209490;28;20264;-56
2021/03/22 14:02:17;;;;;;;4.00;2.87;;;;;;;13.23;41.40;102059.19;6209653;28;20229;-56
2021/03/22 14:05:38;;;;;;;6.73;3.40;;;;;;;13.56;40.98;102043.47;6202818;28;20372;-59
2021/03/22 14:08:59;;;;;;;3.57;2.60;;;;;;;12.58;42.39;102056.47;6208283;28;20228;-58
2021/03/22 14:12:19;;;;;;;4.53;2.20;;;;;;;12.61;41.99;102059.13;6203610;28;20283;-59
2021/03/22 14:15:43;;;;;;;4.03;3.27;;;;;;;12.39;42.24;102059.06;6204943;28;20244;-58
2021/03/22 14:19:03;;;;;;;4.10;2.30;;;;;;;12.08;43.21;102057.19;6200918;28;20253;-58
2021/03/22 14:22:24;;;;;;;5.23;2.63;;;;;;;11.91;43.84;102059.72;6205352;28;20919;-58
2021/03/22 14:25:45;;;;;;;4.03;2.37;;;;;;;11.88;44.39;102060.53;6204311;28;20237;-55
2021/03/22 14:29:05;;;;;;;4.90;2.33;;;;;;;12.37;42.92;102050.34;6202821;28;20531;-57
2021/03/22 14:32:26;;;;;;;3.73;2.97;;;;;;;12.11;43.99;102062.44;6194543;28;20361;-59
2021/03/22 14:35:47;;;;;;;4.33;2.07;;;;;;;11.76;44.66;102063.97;6196340;28;20234;-57
2021/03/22 14:39:08;;;;;;;4.07;3.07;;;;;;;12.17;47.76;102065.06;6209245;28;20232;-73
2021/03/22 14:42:28;;;;;;;4.17;1.80;;;;;;;12.08;44.11;102057.19;6195692;28;20770;-58
2021/03/22 14:45:49;;;;;;;5.30;2.97;;;;;;;11.94;45.02;102060.63;6197345;28;20237;-56
2021/03/22 14:49:09;;;;;;;6.00;2.63;;;;;;;11.73;45.59;102061.34;6197590;28;20237;-55
2021/03/22 14:52:30;;;;;;;6.60;2.93;;;;;;;11.98;45.48;102062.38;6193270;28;20229;-58
2021/03/22 14:55:52;;;;;;;4.03;2.03;;;;;;;11.72;47.79;102063.94;6196520;28;20312;-58
2021/03/22 14:59:13;;;;;;;4.33;2.23;;;;;;;11.73;49.06;102065.66;6193986;28;20249;-57
2021/03/22 15:02:34;;;;;;;5.47;2.07;;;;;;;11.47;48.61;102071.59;6195695;28;20558;-60
2021/03/22 15:05:54;;;;;;;8.30;2.87;;;;;;;11.41;49.91;102072.41;6199607;28;20338;-56
2021/03/22 15:09:15;;;;;;;7.60;1.93;;;;;;;11.27;48.28;102067.97;6191295;28;20776;-57
2021/03/22 15:12:37;;;;;;;4.43;2.37;;;;;;;11.42;50.23;102068.09;6198424;28;20620;-57
2021/03/22 15:15:57;;;;;;;6.10;3.43;;;;;;;11.14;49.83;102074.81;6186681;28;20217;-56
2021/03/22 15:19:17;;;;;;;8.17;3.27;;;;;;;10.77;50.83;102058.84;6166907;28;20234;-57
2021/03/22 15:22:38;;;;;;;6.37;2.53;;;;;;;10.48;52.36;102066.34;6199253;28;20233;-57
2021/03/22 15:25:59;;;;;;;4.37;2.50;;;;;;;10.68;51.18;102064.81;6196054;28;20520;-59
2021/03/22 15:29:20;;;;;;;9.27;2.30;;;;;;;10.74;51.15;102058.78;6202802;28;20237;-58
2021/03/22 15:32:40;;;;;;;3.80;1.90;;;;;;;10.92;50.63;102073.75;6203933;28;20233;-58
2021/03/22 15:36:04;;;;;;;9.80;1.90;;;;;;;10.39;51.03;102078.41;6201638;28;20226;-57
2021/03/22 15:39:24;;;;;;;13.20;3.57;;;;;;;10.41;51.58;102081.00;6202107;28;20229;-57
2021/03/22 15:42:46;;;;;;;4.80;2.13;;;;;;;10.22;51.49;102077.28;6203404;28;20555;-55
2021/03/22 15:46:09;;;;;;;6.40;1.83;;;;;;;10.14;51.74;102073.69;6207451;28;20300;-55
2021/03/22 15:49:29;;;;;;;6.90;2.40;;;;;;;10.03;52.54;102079.66;6196041;28;20324;-57
2021/03/22 15:52:50;;;;;;;6.13;2.63;;;;;;;10.40;51.89;102080.16;6204744;28;20638;-57